createdAt,value
2023-03-05T00:02:59.028Z,76.72
2023-03-05T00:07:12.372Z,76.94
2023-03-05T00:11:25.651Z,77.71
2023-03-05T00:15:42.244Z,77.20
2023-03-05T00:19:53.819Z,77.63
2023-03-05T00:24:08.774Z,77.52
2023-03-05T00:28:20.500Z,76.99
2023-03-05T00:32:32.548Z,77.61
2023-03-05T00:36:47.678Z,77.48
2023-03-05T00:40:59.207Z,77.83
2023-03-05T00:45:11.535Z,77.79
2023-03-05T00:49:23.137Z,77.29
2023-03-05T00:53:35.677Z,77.38
2023-03-05T00:57:47.418Z,77.51
2023-03-05T01:01:59.168Z,77.89
2023-03-05T01:06:13.513Z,77.81
2023-03-05T01:10:26.812Z,78.17
2023-03-05T01:14:38.445Z,77.55
2023-03-05T01:18:50.029Z,77.49
2023-03-05T01:23:01.921Z,77.29
2023-03-05T01:27:13.562Z,77.70
2023-03-05T01:31:25.424Z,77.33
2023-03-05T01:35:37.083Z,77.70
2023-03-05T01:39:48.648Z,77.48
2023-03-05T01:44:00.463Z,77.39
2023-03-05T01:48:12.247Z,77.25
2023-03-05T01:52:25.489Z,77.34
2023-03-05T01:56:39.313Z,77.94
2023-03-05T02:00:53.655Z,77.50
2023-03-05T02:05:10.174Z,77.61
2023-03-05T02:09:23.936Z,77.68
2023-03-05T02:13:38.666Z,77.43
2023-03-05T02:17:50.321Z,77.23
2023-03-05T02:22:01.994Z,77.27
2023-03-05T02:26:13.725Z,77.47
2023-03-05T02:30:25.866Z,77.79
2023-03-05T02:34:37.548Z,77.61
2023-03-05T02:38:49.802Z,77.43
2023-03-05T02:43:01.937Z,77.46
2023-03-05T02:47:14.009Z,77.28
2023-03-05T02:51:26.273Z,77.76
2023-03-05T02:55:39.158Z,77.40
2023-03-05T02:59:51.141Z,77.82
2023-03-05T03:04:03.008Z,77.70
2023-03-05T03:08:15.340Z,77.08
2023-03-05T03:12:26.942Z,77.31
2023-03-05T03:16:38.527Z,77.41
2023-03-05T03:20:50.187Z,77.58
2023-03-05T03:25:02.100Z,77.01
2023-03-05T03:29:13.789Z,77.58
2023-03-05T03:33:25.454Z,77.84
2023-03-05T03:37:37.318Z,77.82
2023-03-05T03:41:51.064Z,77.64
2023-03-05T03:46:09.424Z,77.98
2023-03-05T03:50:21.681Z,77.81
2023-03-05T03:54:33.632Z,77.86
2023-03-05T03:58:45.282Z,77.59
2023-03-05T04:02:56.862Z,77.78
2023-03-05T04:07:08.529Z,78.67
2023-03-05T04:11:20.502Z,78.63
2023-03-05T04:15:33.010Z,78.51
2023-03-05T04:19:44.778Z,78.16
2023-03-05T04:23:56.348Z,78.50
2023-03-05T04:28:07.905Z,78.63
2023-03-05T04:32:23.309Z,78.66
2023-03-05T04:36:34.956Z,78.29
2023-03-05T04:40:47.247Z,79.22
2023-03-05T04:44:58.859Z,78.75
2023-03-05T04:49:10.432Z,78.77
2023-03-05T04:53:22.020Z,78.62
2023-03-05T04:57:33.653Z,78.94
2023-03-05T05:01:45.397Z,79.02
2023-03-05T05:05:59.290Z,79.23
2023-03-05T05:10:11.915Z,78.68
2023-03-05T05:14:23.478Z,79.36
2023-03-05T05:18:35.533Z,79.12
2023-03-05T05:22:47.191Z,79.53
2023-03-05T05:26:58.743Z,79.67
2023-03-05T05:31:13.724Z,79.24
2023-03-05T05:35:25.454Z,79.41
2023-03-05T05:39:37.605Z,79.32
2023-03-05T05:43:49.596Z,79.56
2023-03-05T05:48:01.584Z,79.81
2023-03-05T05:52:13.774Z,79.50
2023-03-05T05:56:25.609Z,79.94
2023-03-05T06:00:37.184Z,80.49
2023-03-05T06:04:48.830Z,80.15
2023-03-05T06:09:00.916Z,80.30
2023-03-05T06:13:12.546Z,80.40
2023-03-05T06:17:30.292Z,80.38
2023-03-05T06:21:46.002Z,80.01
2023-03-05T06:26:02.912Z,80.71
2023-03-05T06:30:14.651Z,80.53
2023-03-05T06:34:26.234Z,80.63
2023-03-05T06:38:38.378Z,81.08
2023-03-05T06:42:50.009Z,81.05
2023-03-05T06:47:01.568Z,81.03
2023-03-05T06:51:21.971Z,81.18
2023-03-05T06:55:39.722Z,80.51
2023-03-05T06:59:51.365Z,80.92
2023-03-05T07:04:04.012Z,80.56
2023-03-05T07:08:15.884Z,80.87
2023-03-05T07:12:27.486Z,80.95
2023-03-05T07:16:39.158Z,81.23
2023-03-05T07:20:50.833Z,81.29
2023-03-05T07:25:02.405Z,80.95
2023-03-05T07:29:13.964Z,80.70
2023-03-05T07:33:26.593Z,81.23
2023-03-05T07:37:38.506Z,80.80
2023-03-05T07:41:51.565Z,80.68
2023-03-05T07:46:14.937Z,80.09
2023-03-05T07:50:26.666Z,80.38
2023-03-05T07:54:39.656Z,80.04
2023-03-05T07:58:51.360Z,79.18
2023-03-05T08:03:03.016Z,78.96
2023-03-05T08:07:16.362Z,79.04
2023-03-05T08:11:28.824Z,78.10
2023-03-05T08:15:40.641Z,77.95
2023-03-05T08:19:53.781Z,77.65
2023-03-05T08:24:08.149Z,77.86
2023-03-05T08:28:19.783Z,77.92
2023-03-05T08:32:31.465Z,78.07
2023-03-05T08:36:43.156Z,77.54
2023-03-05T08:40:54.745Z,76.89
2023-03-05T08:45:06.989Z,76.04
2023-03-05T08:49:18.576Z,75.23
2023-03-05T08:53:30.412Z,74.05
2023-03-05T08:57:42.320Z,73.57
2023-03-05T09:01:54.024Z,73.48
2023-03-05T09:06:08.659Z,72.20
2023-03-05T09:10:20.419Z,72.52
2023-03-05T09:14:32.080Z,71.35
2023-03-05T09:18:44.070Z,71.39
2023-03-05T09:22:55.640Z,71.63
2023-03-05T09:27:07.336Z,71.18
2023-03-05T09:31:19.023Z,71.27
2023-03-05T09:35:30.785Z,70.81
2023-03-05T09:39:42.390Z,71.08
2023-03-05T09:44:08.883Z,70.87
2023-03-05T09:48:39.908Z,70.49
2023-03-05T09:52:55.518Z,70.05
2023-03-05T09:57:15.322Z,69.62
2023-03-05T10:01:42.076Z,69.10
2023-03-05T10:06:11.279Z,68.43
2023-03-05T10:10:31.233Z,68.42
2023-03-05T10:14:42.978Z,67.96
2023-03-05T10:19:41.115Z,67.42
2023-03-05T10:23:56.856Z,67.49
2023-03-05T10:28:35.712Z,67.71
2023-03-05T10:33:08.058Z,67.37
2023-03-05T10:37:47.144Z,67.05
2023-03-05T10:42:37.655Z,66.97
2023-03-05T10:46:50.100Z,66.63
2023-03-05T10:51:28.018Z,66.31
2023-03-05T10:55:40.385Z,66.09
2023-03-05T11:00:01.062Z,65.96
2023-03-05T11:04:32.192Z,65.01
2023-03-05T11:08:43.887Z,64.33
2023-03-05T11:12:57.952Z,63.99
2023-03-05T11:17:31.738Z,64.20
2023-03-05T11:21:44.642Z,63.30
2023-03-05T11:26:22.622Z,61.41
2023-03-05T11:30:37.585Z,60.87
2023-03-05T11:34:49.507Z,58.65
2023-03-05T11:39:10.304Z,57.19
2023-03-05T11:43:24.670Z,56.21
2023-03-05T11:47:49.878Z,55.61
2023-03-05T11:52:23.736Z,54.95
2023-03-05T11:56:37.382Z,54.28
2023-03-05T12:00:49.403Z,54.32
2023-03-05T12:05:04.077Z,54.79
2023-03-05T12:10:18.907Z,55.25
2023-03-05T12:14:44.866Z,55.74
2023-03-05T12:19:22.774Z,56.46
2023-03-05T12:23:50.935Z,56.50
2023-03-05T12:28:03.102Z,56.66
2023-03-05T12:32:29.006Z,56.42
2023-03-05T12:36:40.874Z,55.40
2023-03-05T12:40:52.528Z,55.26
2023-03-05T12:45:10.144Z,55.09
2023-03-05T12:49:27.116Z,55.28
2023-03-05T12:53:38.746Z,55.67
2023-03-05T12:57:58.631Z,55.87
2023-03-05T13:02:24.172Z,54.54
2023-03-05T13:06:36.775Z,54.91
2023-03-05T13:11:21.390Z,55.09
2023-03-05T13:15:33.613Z,54.57
2023-03-05T13:19:45.303Z,54.65
2023-03-05T13:23:59.473Z,54.80
2023-03-05T13:28:16.776Z,54.80
2023-03-05T13:32:31.512Z,54.78
2023-03-05T13:37:17.131Z,55.32
2023-03-05T13:41:29.926Z,55.23
2023-03-05T13:45:44.075Z,55.55
2023-03-05T13:50:00.938Z,55.69
2023-03-05T13:54:17.724Z,55.79
2023-03-05T13:58:49.230Z,55.62
2023-03-05T14:03:27.955Z,55.58
2023-03-05T14:07:41.512Z,55.62
2023-03-05T14:12:21.187Z,54.91
2023-03-05T14:16:33.739Z,55.00
2023-03-05T14:21:08.807Z,55.20
2023-03-05T14:25:39.454Z,54.98
2023-03-05T14:29:51.370Z,54.84
2023-03-05T14:34:07.936Z,54.76
2023-03-05T14:38:34.107Z,54.82
2023-03-05T14:43:00.840Z,54.08
2023-03-05T14:47:12.446Z,53.78
2023-03-05T14:51:25.391Z,53.55
2023-03-05T14:55:38.380Z,53.31
2023-03-05T14:59:50.342Z,53.61
2023-03-05T15:04:01.994Z,53.23
2023-03-05T15:08:20.356Z,53.35
2023-03-05T15:12:32.037Z,53.71
2023-03-05T15:16:45.616Z,53.75
2023-03-05T15:20:57.527Z,54.21
2023-03-05T15:25:09.749Z,53.82
2023-03-05T15:29:21.347Z,53.85
2023-03-05T15:33:33.702Z,54.20
2023-03-05T15:37:45.320Z,54.33
2023-03-05T15:41:58.477Z,54.58
2023-03-05T15:46:10.220Z,54.75
2023-03-05T15:50:22.136Z,55.07
2023-03-05T15:54:35.418Z,55.31
2023-03-05T15:58:50.704Z,55.78
2023-03-05T16:03:02.720Z,56.10
2023-03-05T16:07:15.554Z,56.69
2023-03-05T16:11:28.041Z,57.05
2023-03-05T16:15:41.748Z,57.48
2023-03-05T16:19:55.710Z,57.93
2023-03-05T16:24:07.534Z,58.21
2023-03-05T16:28:19.439Z,58.47
2023-03-05T16:32:31.129Z,59.09
2023-03-05T16:36:48.873Z,59.47
2023-03-05T16:41:08.191Z,60.04
2023-03-05T16:45:20.597Z,61.91
2023-03-05T16:49:33.081Z,63.14
2023-03-05T16:53:44.749Z,64.86
2023-03-05T16:57:56.333Z,65.78
2023-03-05T17:02:08.061Z,65.65
2023-03-05T17:06:22.667Z,66.69
2023-03-05T17:10:34.361Z,67.49
2023-03-05T17:14:46.303Z,68.08
2023-03-05T17:18:57.920Z,68.54
2023-03-05T17:23:09.564Z,68.77
2023-03-05T17:27:22.709Z,69.81
2023-03-05T17:31:34.817Z,69.74
2023-03-05T17:35:50.454Z,69.42
2023-03-05T17:40:03.947Z,70.05
2023-03-05T17:44:15.804Z,70.41
2023-03-05T17:48:28.382Z,69.92
2023-03-05T17:52:41.256Z,70.52
2023-03-05T17:56:56.731Z,70.47
2023-03-05T18:01:08.978Z,70.95
2023-03-05T18:05:22.787Z,70.84
2023-03-05T18:09:34.389Z,70.60
2023-03-05T18:13:45.998Z,71.11
2023-03-05T18:18:03.531Z,71.38
2023-03-05T18:22:15.265Z,71.48
2023-03-05T18:26:26.896Z,71.39
2023-03-05T18:30:40.669Z,71.77
2023-03-05T18:34:52.348Z,71.80
2023-03-05T18:39:04.229Z,71.69
2023-03-05T18:43:17.206Z,71.94
2023-03-05T18:47:29.431Z,72.10
2023-03-05T18:51:42.133Z,71.98
2023-03-05T18:55:53.750Z,72.33
2023-03-05T19:00:06.049Z,72.49
2023-03-05T19:04:17.801Z,72.08
2023-03-05T19:08:29.508Z,72.66
2023-03-05T19:12:49.213Z,72.65
2023-03-05T19:17:00.753Z,72.73
2023-03-05T19:21:12.354Z,73.20
2023-03-05T19:25:23.960Z,73.05
2023-03-05T19:29:37.720Z,73.36
2023-03-05T19:33:49.485Z,73.02
2023-03-05T19:38:01.116Z,73.28
2023-03-05T19:42:12.882Z,73.41
2023-03-05T19:46:24.634Z,73.34
2023-03-05T19:50:36.283Z,73.17
2023-03-05T19:54:47.850Z,73.83
2023-03-05T19:58:59.539Z,74.03
2023-03-05T20:03:11.351Z,74.28
2023-03-05T20:07:22.948Z,73.87
2023-03-05T20:11:34.607Z,73.98
2023-03-05T20:15:46.291Z,74.25
2023-03-05T20:20:00.143Z,74.01
2023-03-05T20:24:14.801Z,73.47
2023-03-05T20:28:26.480Z,74.41
2023-03-05T20:32:38.210Z,74.00
2023-03-05T20:36:49.840Z,73.90
2023-03-05T20:41:10.391Z,73.99
2023-03-05T20:45:23.094Z,74.10
2023-03-05T20:49:34.727Z,73.83
2023-03-05T20:53:46.355Z,74.04
2023-03-05T20:57:57.985Z,73.89
2023-03-05T21:02:10.181Z,73.96
2023-03-05T21:06:21.846Z,74.01
2023-03-05T21:10:33.552Z,74.07
2023-03-05T21:14:45.179Z,74.28
2023-03-05T21:18:57.407Z,74.13
2023-03-05T21:23:09.072Z,74.23
2023-03-05T21:27:20.715Z,74.02
2023-03-05T21:31:32.460Z,73.95
2023-03-05T21:35:44.737Z,74.26
2023-03-05T21:39:56.342Z,74.45
2023-03-05T21:44:08.730Z,74.21
2023-03-05T21:48:22.475Z,74.29
2023-03-05T21:52:34.512Z,74.46
2023-03-05T21:56:46.641Z,74.40
2023-03-05T22:00:58.879Z,74.42
2023-03-05T22:05:13.235Z,74.73
2023-03-05T22:09:24.935Z,74.72
2023-03-05T22:13:37.486Z,75.14
2023-03-05T22:17:49.313Z,75.30
2023-03-05T22:22:01.591Z,74.99
2023-03-05T22:26:13.580Z,75.19
2023-03-05T22:30:25.424Z,75.43
2023-03-05T22:34:37.562Z,75.66
2023-03-05T22:38:49.500Z,75.44
2023-03-05T22:43:01.206Z,75.82
2023-03-05T22:47:13.081Z,75.58
2023-03-05T22:51:24.836Z,75.66
2023-03-05T22:55:41.869Z,75.72
2023-03-05T22:59:53.636Z,76.17
2023-03-05T23:04:18.265Z,76.36
2023-03-05T23:08:30.077Z,76.02
2023-03-05T23:12:49.406Z,76.06
2023-03-05T23:17:01.084Z,76.09
2023-03-05T23:21:12.772Z,75.78
2023-03-05T23:25:27.424Z,76.39
2023-03-05T23:29:58.234Z,76.15
2023-03-05T23:34:09.870Z,76.77
2023-03-05T23:38:21.941Z,77.32
2023-03-05T23:42:33.714Z,77.24
2023-03-05T23:46:45.324Z,77.37
2023-03-05T23:50:57.012Z,77.04
2023-03-05T23:55:09.876Z,77.86
2023-03-05T23:59:21.538Z,77.59
